Flight Track Log - Related Links

Times and Time Zones

All times are in EDT time to prevent confusion due to time zone crossing. See the TCF7302 flight status page for this flight to view local times or setup timezone preferences in your user account.

Time Position Orientation Groundspeed Altitude Reporting Facility
EDT Latitude Longitude Course Direction KTS MPH feet Rate Location/Type
Tue 10:09:19 PM 40.8000 -73.8500 313° West 151 174 1,700  Level New York TRACON
Tue 10:10:20 PM 40.8500 -73.8000 37° Northeast 221 254 4,100 2,884 Climbing New York TRACON
Tue 10:12:00 PM 41.0050 -74.2323 306° West  Level FlightAware Approximate
Tue 10:12:20 PM 40.9342 -73.9189 313° West 265 305 10,400  Level New York Center
Tue 10:13:00 PM 41.0634 -74.3262 313° West  Level FlightAware Approximate
Tue 10:13:20 PM 40.9792 -74.0253 299° West 283 326 12,600  Level New York Center
Tue 10:14:00 PM 41.1260 -74.4156 313° West  Level FlightAware Approximate
Tue 10:14:20 PM 41.0206 -74.1153 301° West 315 362 15,100  Level New York Center
Tue 10:15:20 PM 41.0694 -74.2250 301° West 343 395 17,300 2,430 Climbing New York Center
Tue 10:16:21 PM 41.1261 -74.3464 302° West 343 395 20,000 2,350 Climbing New York Center
Tue 10:17:20 PM 41.1747 -74.4619 299° West 349 402 22,000 1,000 Climbing New York Center
Tue 10:18:21 PM 41.2294 -74.5781 302° West 359 413 22,000  Level New York Center
Tue 10:19:20 PM 41.2964 -74.6894 309° West 372 428 22,000  Level New York Center
Tue 10:20:20 PM 41.3594 -74.7983 308° West 386 444 22,000  Level New York Center
Tue 10:21:20 PM 41.4267 -74.9047 310° West 379 436 22,000  Level New York Center
Tue 10:22:20 PM 41.4894 -75.0108 308° West 374 430 22,000  Level New York Center
Tue 10:23:20 PM 41.5544 -75.1178 309° West 369 425 22,000  Level New York Center
Tue 10:24:20 PM 41.6192 -75.2244 309° West 369 425 22,000  Level New York Center
Tue 10:25:20 PM 41.6839 -75.3317 309° West 369 425 22,000  Level New York Center
Tue 10:26:20 PM 41.7503 -75.4389 310° West 369 425 22,000  Level New York Center
Tue 10:27:21 PM 41.8458 -75.5014 334° Northwest 374 430 22,000  Level New York Center
Tue 10:28:21 PM 41.9522 -75.5481 342° North 374 430 22,000 -403 Level New York Center
Tue 10:29:20 PM 42.0461 -75.5939 340° North 394 453 21,200 -1,412 Descending New York Center
Tue 10:30:20 PM 42.1483 -75.6406 341° North 399 459 19,200 -2,100 Descending New York Center
Tue 10:31:20 PM 42.2442 -75.6897 339° North 392 451 17,000 -2,035 Descending New York Center
Tue 10:32:15 PM 42.3433 -75.7339 342° North 359 413 15,300 -1,735 Descending Boston Center
Tue 10:32:43 PM 42.3772 -75.7497 341° North 362 417 14,600 -1,727 Descending Boston Center
Tue 10:33:21 PM 42.4386 -75.7772 342° North 335 386 13,400 -1,619 Descending Boston Center
Tue 10:33:46 PM 42.4633 -75.7908 338° Northwest 332 382 12,900 -1,672 Descending Boston Center
Tue 10:34:22 PM 42.5211 -75.8200 340° North 315 362 11,700 -1,700 Descending Boston Center
Tue 10:34:46 PM 42.5464 -75.8322 340° North 322 371 11,200 -1,111 Descending Boston Center
Tue 10:35:16 PM 42.5944 -75.8542 341° North 306 352 10,700 -800 Descending Boston Center
Tue 10:35:46 PM 42.6222 -75.8697 338° Northwest 293 337 10,400 -1,238 Descending Boston Center
Tue 10:36:19 PM 42.6614 -75.8892 340° North 245 282 9,400 -1,645 Descending Boston Center
Tue 10:36:48 PM 42.6892 -75.9006 343° North 264 304 8,700 -1,846 Descending Boston Center
Tue 10:37:24 PM 42.7386 -75.9247 340° North 249 287 7,400 -1,500 Descending Boston Center
Tue 10:37:48 PM 42.7533 -75.9319 340° North 252 290 7,200 -1,000 Descending Boston Center
Tue 10:38:24 PM 42.8047 -75.9511 345° North 253 291 6,400 -1,082 Descending Boston Center
Tue 10:38:49 PM 42.8186 -75.9450 18° North 254 292 6,100 -1,377 Descending Boston Center
Tue 10:39:25 PM 42.8747 -75.9292 12° North 259 298 5,000 -1,500 Descending Boston Center
Tue 10:39:49 PM 42.8933 -75.9261 North 265 305 4,600 -1,309 Descending Boston Center
Tue 10:40:20 PM 42.9375 -75.9111 14° North 253 291 3,800 -1,017 Descending Boston Center
Tue 10:40:48 PM 42.9619 -75.9069 North 263 303 3,600 -295 Descending Boston Center
Tue 10:41:21 PM 43.0067 -75.8947 11° North 251 289 3,500 -400 Descending Boston Center
Tue 10:41:48 PM 43.0275 -75.8914 North 251 289 3,200 -800 Descending Boston Center
Tue 10:42:21 PM 43.0603 -75.9317 318° Northwest 222 255 2,700 -677 Descending Boston Center
Tue 10:42:50 PM 43.0747 -75.9461 324° Northwest 235 270 2,500 -689 Descending Boston Center
Tue 10:43:22 PM 43.0969 -75.9811 311° West 174 200 2,000 -677 Descending Boston Center
Tue 10:43:52 PM 43.1092 -75.9964 318° Northwest 206 237 1,800 -600 Descending Boston Center
Tue 10:44:22 PM 43.1103 -76.0289 273° West 121 139 1,400 -689 Descending Boston Center
Tue 10:44:53 PM 43.1111 -76.0508 273° West 149 171 1,100 -590 Descending Boston Center
Tue 10:45:23 PM 43.1089 -76.0753 263° West 108 124 800 -689 Descending Boston Center
Tue 10:45:54 PM 43.1097 -76.0958 273° West 129 148 400 -774 Descending Boston Center

Login

Don't have an account? Register now (free) for customized features, flight alerts, and more!